GLD1793 LPFL-LPHR
Flight info
| Callsign | GLD1793 |
|---|---|
| Flight time | 0h 44m |
| Altitude | 9000 |
| Route | YARM1N YARMA FATAG FATA1N |
| Aircraft | BE58/M-SDFGIRY/S |
Departure
| Time | 2026-05-09 14:14 |
|---|---|
| Airport | Flores Airport (LPFL) |
Arrival
| Time | 2026-05-09 14:58 |
|---|---|
| Airport | Horta Airport (LPHR) |
| Time | Latitude | Longitude | Altitude | Speed | Heading |
|---|---|---|---|---|---|
| 2026-05-09 14:09 | 39.45814 | -31.13068 | 89 ft | 0 kts | 19° |
| 2026-05-09 14:11 | 39.45821 | -31.13091 | 91 ft | 7 kts | 268° |
| 2026-05-09 14:11 | 39.45808 | -31.13182 | 92 ft | 12 kts | 230° |
| 2026-05-09 14:11 | 39.45719 | -31.13195 | 92 ft | 15 kts | 178° |
| 2026-05-09 14:12 | 39.45621 | -31.13168 | 93 ft | 10 kts | 118° |
| 2026-05-09 14:12 | 39.45647 | -31.13163 | 96 ft | 24 kts | 347° |
| 2026-05-09 14:12 | 39.46090 | -31.13285 | 90 ft | 96 kts | 351° |
| 2026-05-09 14:12 | 39.46796 | -31.13492 | 329 ft | 116 kts | 348° |
| 2026-05-09 14:13 | 39.47681 | -31.13865 | 382 ft | 141 kts | 343° |
| 2026-05-09 14:14 | 39.53752 | -31.11799 | 2384 ft | 167 kts | 80° |
| 2026-05-09 14:15 | 39.53346 | -31.10323 | 2650 ft | 187 kts | 121° |
| 2026-05-09 14:15 | 39.52449 | -31.09069 | 2917 ft | 190 kts | 127° |
| 2026-05-09 14:15 | 39.51568 | -31.07820 | 3176 ft | 190 kts | 123° |
| 2026-05-09 14:15 | 39.50713 | -31.06512 | 3440 ft | 191 kts | 122° |
| 2026-05-09 14:16 | 39.49848 | -31.05169 | 3701 ft | 192 kts | 122° |
| 2026-05-09 14:16 | 39.48997 | -31.03853 | 3955 ft | 193 kts | 122° |
| 2026-05-09 14:16 | 39.48136 | -31.02524 | 4211 ft | 193 kts | 123° |
| 2026-05-09 14:16 | 39.47274 | -31.01194 | 4468 ft | 193 kts | 122° |
| 2026-05-09 14:17 | 39.46408 | -30.99860 | 4733 ft | 193 kts | 123° |
| 2026-05-09 14:17 | 39.45540 | -30.98521 | 5001 ft | 194 kts | 124° |
| 2026-05-09 14:17 | 39.44675 | -30.97188 | 5256 ft | 194 kts | 124° |
| 2026-05-09 14:17 | 39.43805 | -30.95848 | 5517 ft | 194 kts | 123° |
| 2026-05-09 14:18 | 39.42938 | -30.94518 | 5773 ft | 194 kts | 123° |
| 2026-05-09 14:18 | 39.42085 | -30.93178 | 6027 ft | 191 kts | 118° |
| 2026-05-09 14:18 | 39.41489 | -30.91702 | 6284 ft | 186 kts | 108° |
| 2026-05-09 14:18 | 39.40913 | -30.90189 | 6551 ft | 187 kts | 109° |
| 2026-05-09 14:19 | 39.40329 | -30.88677 | 6807 ft | 188 kts | 108° |
| 2026-05-09 14:19 | 39.39745 | -30.87156 | 7051 ft | 189 kts | 109° |
| 2026-05-09 14:19 | 39.39161 | -30.85635 | 7297 ft | 189 kts | 109° |
| 2026-05-09 14:19 | 39.38576 | -30.84111 | 7560 ft | 188 kts | 109° |
| 2026-05-09 14:20 | 39.38000 | -30.82615 | 7931 ft | 184 kts | 109° |
| 2026-05-09 14:20 | 39.37436 | -30.81145 | 8305 ft | 181 kts | 108° |
| 2026-05-09 14:20 | 39.36883 | -30.79705 | 8680 ft | 180 kts | 108° |
| 2026-05-09 14:21 | 39.35730 | -30.76688 | 8996 ft | 201 kts | 109° |
| 2026-05-09 14:21 | 39.35090 | -30.75033 | 9004 ft | 210 kts | 109° |
| 2026-05-09 14:21 | 39.34423 | -30.73310 | 9000 ft | 216 kts | 110° |
| 2026-05-09 14:21 | 39.33747 | -30.71562 | 9004 ft | 219 kts | 110° |
| 2026-05-09 14:22 | 39.33064 | -30.69793 | 8997 ft | 221 kts | 110° |
| 2026-05-09 14:22 | 39.32378 | -30.68018 | 9005 ft | 222 kts | 109° |
| 2026-05-09 14:22 | 39.31684 | -30.66222 | 8996 ft | 222 kts | 110° |
| 2026-05-09 14:22 | 39.30995 | -30.64440 | 8995 ft | 221 kts | 109° |
| 2026-05-09 14:23 | 39.30316 | -30.62683 | 8995 ft | 222 kts | 110° |
| 2026-05-09 14:23 | 39.29626 | -30.60899 | 8989 ft | 222 kts | 110° |
| 2026-05-09 14:23 | 39.28936 | -30.59118 | 8989 ft | 222 kts | 109° |
| 2026-05-09 14:23 | 39.28247 | -30.57338 | 8989 ft | 221 kts | 110° |
| 2026-05-09 14:24 | 39.27559 | -30.55565 | 8989 ft | 221 kts | 110° |
| 2026-05-09 14:24 | 39.26869 | -30.53785 | 8989 ft | 221 kts | 109° |
| 2026-05-09 14:24 | 39.26179 | -30.52008 | 8989 ft | 221 kts | 110° |
| 2026-05-09 14:24 | 39.25489 | -30.50230 | 8983 ft | 221 kts | 109° |
| 2026-05-09 14:25 | 39.24808 | -30.48475 | 8981 ft | 221 kts | 109° |
| 2026-05-09 14:25 | 39.24117 | -30.46700 | 8980 ft | 221 kts | 110° |
| 2026-05-09 14:25 | 39.23427 | -30.44925 | 8981 ft | 221 kts | 109° |
| 2026-05-09 14:25 | 39.22737 | -30.43152 | 8981 ft | 221 kts | 110° |
| 2026-05-09 14:26 | 39.22045 | -30.41375 | 8983 ft | 222 kts | 110° |
| 2026-05-09 14:26 | 39.21351 | -30.39593 | 8990 ft | 223 kts | 110° |
| 2026-05-09 14:26 | 39.20655 | -30.37808 | 8980 ft | 223 kts | 109° |
| 2026-05-09 14:26 | 39.19958 | -30.36022 | 8981 ft | 222 kts | 110° |
| 2026-05-09 14:27 | 39.19263 | -30.34243 | 8981 ft | 222 kts | 110° |
| 2026-05-09 14:27 | 39.18570 | -30.32467 | 8981 ft | 222 kts | 110° |
| 2026-05-09 14:27 | 39.17875 | -30.30689 | 8980 ft | 222 kts | 110° |
| 2026-05-09 14:27 | 39.17182 | -30.28917 | 8980 ft | 222 kts | 110° |
| 2026-05-09 14:28 | 39.16487 | -30.27141 | 8974 ft | 222 kts | 110° |
| 2026-05-09 14:28 | 39.15794 | -30.25370 | 8974 ft | 222 kts | 110° |
| 2026-05-09 14:28 | 39.15108 | -30.23620 | 8974 ft | 222 kts | 109° |
| 2026-05-09 14:28 | 39.14411 | -30.21841 | 8975 ft | 222 kts | 109° |
| 2026-05-09 14:29 | 39.13717 | -30.20071 | 8975 ft | 222 kts | 110° |
| 2026-05-09 14:29 | 39.13022 | -30.18300 | 8975 ft | 221 kts | 109° |
| 2026-05-09 14:29 | 39.12329 | -30.16533 | 8967 ft | 221 kts | 110° |
| 2026-05-09 14:29 | 39.11633 | -30.14763 | 8967 ft | 221 kts | 110° |
| 2026-05-09 14:30 | 39.10938 | -30.12996 | 8967 ft | 221 kts | 110° |
| 2026-05-09 14:30 | 39.10246 | -30.11235 | 8978 ft | 222 kts | 110° |
| 2026-05-09 14:30 | 39.09544 | -30.09449 | 8969 ft | 222 kts | 109° |
| 2026-05-09 14:30 | 39.08845 | -30.07676 | 8968 ft | 222 kts | 109° |
| 2026-05-09 14:31 | 39.08144 | -30.05896 | 8970 ft | 222 kts | 110° |
| 2026-05-09 14:31 | 39.07452 | -30.04143 | 8966 ft | 222 kts | 110° |
| 2026-05-09 14:31 | 39.06751 | -30.02365 | 8964 ft | 223 kts | 110° |
| 2026-05-09 14:31 | 39.06050 | -30.00588 | 8965 ft | 223 kts | 110° |
| 2026-05-09 14:32 | 39.05348 | -29.98810 | 8960 ft | 223 kts | 110° |
| 2026-05-09 14:32 | 39.04644 | -29.97029 | 8960 ft | 223 kts | 110° |
| 2026-05-09 14:32 | 39.03942 | -29.95253 | 8961 ft | 222 kts | 109° |
| 2026-05-09 14:32 | 39.03240 | -29.93479 | 8960 ft | 222 kts | 109° |
| 2026-05-09 14:33 | 39.02538 | -29.91707 | 8955 ft | 222 kts | 110° |
| 2026-05-09 14:33 | 39.01837 | -29.89936 | 8955 ft | 222 kts | 110° |
| 2026-05-09 14:33 | 39.01135 | -29.88165 | 8956 ft | 222 kts | 110° |
| 2026-05-09 14:33 | 39.00433 | -29.86394 | 8958 ft | 222 kts | 110° |
| 2026-05-09 14:34 | 38.99729 | -29.84619 | 8963 ft | 223 kts | 110° |
| 2026-05-09 14:34 | 38.98992 | -29.82864 | 8956 ft | 225 kts | 114° |
| 2026-05-09 14:34 | 38.98137 | -29.81165 | 8951 ft | 227 kts | 116° |
| 2026-05-09 14:34 | 38.97276 | -29.79497 | 8959 ft | 227 kts | 116° |
| 2026-05-09 14:35 | 38.96423 | -29.77796 | 8948 ft | 226 kts | 116° |
| 2026-05-09 14:35 | 38.95566 | -29.76069 | 8948 ft | 226 kts | 115° |
| 2026-05-09 14:35 | 38.94979 | -29.74252 | 8948 ft | 218 kts | 98° |
| 2026-05-09 14:35 | 38.94614 | -29.72401 | 8946 ft | 217 kts | 97° |
| 2026-05-09 14:36 | 38.94223 | -29.70517 | 8942 ft | 218 kts | 99° |
| 2026-05-09 14:36 | 38.93748 | -29.68652 | 8943 ft | 219 kts | 101° |
| 2026-05-09 14:36 | 38.93256 | -29.66799 | 8946 ft | 219 kts | 101° |
| 2026-05-09 14:36 | 38.92775 | -29.64949 | 8947 ft | 219 kts | 101° |
| 2026-05-09 14:37 | 38.92296 | -29.63088 | 8946 ft | 219 kts | 101° |
| 2026-05-09 14:37 | 38.91816 | -29.61232 | 8950 ft | 219 kts | 101° |
| 2026-05-09 14:37 | 38.91343 | -29.59398 | 8944 ft | 219 kts | 101° |
| 2026-05-09 14:37 | 38.90860 | -29.57537 | 8938 ft | 219 kts | 101° |
| 2026-05-09 14:38 | 38.90378 | -29.55674 | 8947 ft | 219 kts | 101° |
| 2026-05-09 14:38 | 38.89895 | -29.53811 | 8952 ft | 220 kts | 101° |
| 2026-05-09 14:38 | 38.89410 | -29.51941 | 8937 ft | 220 kts | 101° |
| 2026-05-09 14:38 | 38.88930 | -29.50094 | 8937 ft | 221 kts | 101° |
| 2026-05-09 14:39 | 38.88445 | -29.48227 | 8938 ft | 220 kts | 101° |
| 2026-05-09 14:39 | 38.87960 | -29.46363 | 8933 ft | 220 kts | 100° |
| 2026-05-09 14:39 | 38.87474 | -29.44493 | 8934 ft | 220 kts | 101° |
| 2026-05-09 14:39 | 38.86989 | -29.42633 | 8938 ft | 220 kts | 101° |
| 2026-05-09 14:40 | 38.86501 | -29.40761 | 8937 ft | 220 kts | 101° |
| 2026-05-09 14:40 | 38.86015 | -29.38896 | 8932 ft | 220 kts | 101° |
| 2026-05-09 14:40 | 38.85529 | -29.37033 | 8933 ft | 220 kts | 101° |
| 2026-05-09 14:40 | 38.85043 | -29.35173 | 8927 ft | 220 kts | 101° |
| 2026-05-09 14:41 | 38.84554 | -29.33303 | 8929 ft | 220 kts | 101° |
| 2026-05-09 14:41 | 38.84074 | -29.31469 | 8929 ft | 220 kts | 101° |
| 2026-05-09 14:41 | 38.83586 | -29.29603 | 8928 ft | 220 kts | 101° |
| 2026-05-09 14:41 | 38.83099 | -29.27746 | 8927 ft | 219 kts | 101° |
| 2026-05-09 14:42 | 38.82614 | -29.25894 | 8924 ft | 219 kts | 101° |
| 2026-05-09 14:42 | 38.82127 | -29.24037 | 8924 ft | 220 kts | 101° |
| 2026-05-09 14:42 | 38.81637 | -29.22173 | 8924 ft | 221 kts | 100° |
| 2026-05-09 14:42 | 38.81147 | -29.20308 | 8925 ft | 221 kts | 101° |
| 2026-05-09 14:43 | 38.80655 | -29.18438 | 8923 ft | 221 kts | 101° |
| 2026-05-09 14:43 | 38.80163 | -29.16569 | 8926 ft | 221 kts | 101° |
| 2026-05-09 14:43 | 38.79671 | -29.14700 | 8926 ft | 221 kts | 101° |
| 2026-05-09 14:43 | 38.79185 | -29.12855 | 8916 ft | 221 kts | 101° |
| 2026-05-09 14:44 | 38.78694 | -29.10991 | 8917 ft | 221 kts | 101° |
| 2026-05-09 14:44 | 38.78201 | -29.09125 | 8917 ft | 221 kts | 101° |
| 2026-05-09 14:44 | 38.77875 | -29.07894 | 8916 ft | 221 kts | 101° |
| 2026-05-09 14:44 | 38.77380 | -29.06019 | 8917 ft | 221 kts | 102° |
| 2026-05-09 14:45 | 38.76886 | -29.04151 | 8918 ft | 221 kts | 101° |
| 2026-05-09 14:45 | 38.76392 | -29.02285 | 8919 ft | 221 kts | 101° |
| 2026-05-09 14:45 | 38.75899 | -29.00423 | 8915 ft | 221 kts | 101° |
| 2026-05-09 14:45 | 38.75405 | -28.98556 | 8913 ft | 221 kts | 101° |
| 2026-05-09 14:46 | 38.74909 | -28.96690 | 8914 ft | 221 kts | 101° |
| 2026-05-09 14:46 | 38.74414 | -28.94823 | 8914 ft | 222 kts | 102° |
| 2026-05-09 14:46 | 38.73923 | -28.92976 | 8916 ft | 222 kts | 101° |
| 2026-05-09 14:46 | 38.73426 | -28.91107 | 8918 ft | 222 kts | 101° |
| 2026-05-09 14:47 | 38.72926 | -28.89226 | 8907 ft | 223 kts | 101° |
| 2026-05-09 14:47 | 38.72422 | -28.87337 | 8907 ft | 223 kts | 101° |
| 2026-05-09 14:47 | 38.71933 | -28.85520 | 8898 ft | 204 kts | 101° |
| 2026-05-09 14:47 | 38.71491 | -28.83879 | 8847 ft | 188 kts | 100° |
| 2026-05-09 14:48 | 38.71077 | -28.82300 | 8619 ft | 187 kts | 100° |
| 2026-05-09 14:48 | 38.70662 | -28.80729 | 8371 ft | 186 kts | 100° |
| 2026-05-09 14:48 | 38.70243 | -28.79160 | 8132 ft | 186 kts | 99° |
| 2026-05-09 14:48 | 38.69825 | -28.77597 | 7877 ft | 185 kts | 99° |
| 2026-05-09 14:49 | 38.69413 | -28.76056 | 7634 ft | 185 kts | 100° |
| 2026-05-09 14:49 | 38.68989 | -28.74473 | 7385 ft | 185 kts | 100° |
| 2026-05-09 14:49 | 38.68560 | -28.72837 | 7137 ft | 207 kts | 101° |
| 2026-05-09 14:49 | 38.68082 | -28.71076 | 6859 ft | 202 kts | 101° |
| 2026-05-09 14:50 | 38.67635 | -28.69437 | 6590 ft | 194 kts | 100° |
| 2026-05-09 14:50 | 38.67202 | -28.67821 | 6328 ft | 189 kts | 99° |
| 2026-05-09 14:50 | 38.66779 | -28.66239 | 6062 ft | 186 kts | 100° |
| 2026-05-09 14:50 | 38.66361 | -28.64676 | 5806 ft | 185 kts | 100° |
| 2026-05-09 14:51 | 38.65944 | -28.63123 | 5566 ft | 184 kts | 100° |
| 2026-05-09 14:51 | 38.65527 | -28.61572 | 5322 ft | 183 kts | 100° |
| 2026-05-09 14:51 | 38.65184 | -28.60023 | 5081 ft | 178 kts | 91° |
| 2026-05-09 14:51 | 38.64816 | -28.58486 | 4839 ft | 184 kts | 104° |
| 2026-05-09 14:52 | 38.64193 | -28.57029 | 4598 ft | 189 kts | 116° |
| 2026-05-09 14:52 | 38.63336 | -28.55724 | 4341 ft | 194 kts | 129° |
| 2026-05-09 14:52 | 38.62281 | -28.54654 | 4088 ft | 198 kts | 142° |
| 2026-05-09 14:52 | 38.61051 | -28.53868 | 3916 ft | 197 kts | 155° |
| 2026-05-09 14:53 | 38.59719 | -28.53417 | 3690 ft | 200 kts | 169° |
| 2026-05-09 14:53 | 38.58321 | -28.53330 | 3432 ft | 202 kts | 184° |
| 2026-05-09 14:53 | 38.56944 | -28.53618 | 3165 ft | 201 kts | 198° |
| 2026-05-09 14:53 | 38.55652 | -28.54248 | 2945 ft | 193 kts | 212° |
| 2026-05-09 14:54 | 38.54579 | -28.55120 | 2715 ft | 174 kts | 224° |
| 2026-05-09 14:54 | 38.53714 | -28.56155 | 2478 ft | 167 kts | 236° |
| 2026-05-09 14:54 | 38.53034 | -28.57313 | 2251 ft | 159 kts | 247° |
| 2026-05-09 14:54 | 38.52557 | -28.58466 | 2042 ft | 135 kts | 259° |
| 2026-05-09 14:55 | 38.52261 | -28.59535 | 1861 ft | 121 kts | 269° |
| 2026-05-09 14:55 | 38.52090 | -28.60545 | 1694 ft | 112 kts | 277° |
| 2026-05-09 14:55 | 38.52020 | -28.61501 | 1540 ft | 104 kts | 284° |
| 2026-05-09 14:55 | 38.52019 | -28.62411 | 1406 ft | 103 kts | 285° |
| 2026-05-09 14:56 | 38.52012 | -28.63289 | 1263 ft | 97 kts | 284° |
| 2026-05-09 14:56 | 38.52014 | -28.64155 | 1129 ft | 97 kts | 284° |
| 2026-05-09 14:56 | 38.52010 | -28.64996 | 998 ft | 92 kts | 285° |
| 2026-05-09 14:56 | 38.52007 | -28.65792 | 869 ft | 88 kts | 285° |
| 2026-05-09 14:57 | 38.51996 | -28.66560 | 740 ft | 85 kts | 275° |
| 2026-05-09 14:57 | 38.51988 | -28.67297 | 636 ft | 83 kts | 277° |
| 2026-05-09 14:57 | 38.51985 | -28.68046 | 538 ft | 85 kts | 276° |
| 2026-05-09 14:57 | 38.51981 | -28.68795 | 434 ft | 83 kts | 276° |
| 2026-05-09 14:58 | 38.51979 | -28.69511 | 322 ft | 79 kts | 276° |
| 2026-05-09 14:58 | 38.51981 | -28.70200 | 213 ft | 76 kts | 275° |
| 2026-05-09 14:58 | 38.51978 | -28.70848 | 113 ft | 68 kts | 272° |
| 2026-05-09 14:58 | 38.51995 | -28.71265 | 104 ft | 20 kts | 277° |
| 2026-05-09 14:59 | 38.51997 | -28.71360 | 103 ft | 9 kts | 272° |
| 2026-05-09 14:59 | 38.52003 | -28.71425 | 104 ft | 8 kts | 284° |
| 2026-05-09 14:59 | 38.52016 | -28.71464 | 106 ft | 1 kts | 310° |
| 2026-05-09 14:59 | 38.52025 | -28.71475 | 108 ft | 5 kts | 320° |
| 2026-05-09 15:00 | 38.52050 | -28.71488 | 111 ft | 4 kts | 350° |
| 2026-05-09 15:00 | 38.52089 | -28.71491 | 113 ft | 5 kts | 358° |
| 2026-05-09 15:00 | 38.52111 | -28.71500 | 114 ft | 3 kts | 297° |
| 2026-05-09 15:00 | 38.52112 | -28.71504 | 113 ft | 0 kts | 292° |